createdAt,value
2023-01-30T00:00:15.251Z,89
2023-01-30T00:05:15.119Z,89
2023-01-30T00:10:15.615Z,88
2023-01-30T00:15:15.091Z,88
2023-01-30T00:20:15.847Z,88
2023-01-30T00:25:15.163Z,89
2023-01-30T00:30:15.181Z,89
2023-01-30T00:35:15.108Z,89
2023-01-30T00:40:15.155Z,89
2023-01-30T00:45:15.096Z,89
2023-01-30T00:50:15.096Z,90
2023-01-30T00:55:15.098Z,90
2023-01-30T01:00:15.097Z,91
2023-01-30T01:05:15.176Z,91
2023-01-30T01:10:15.095Z,92
2023-01-30T01:15:15.254Z,93
2023-01-30T01:20:15.098Z,94
2023-01-30T01:25:15.267Z,94
2023-01-30T01:30:15.107Z,94
2023-01-30T01:35:15.471Z,95
2023-01-30T01:40:15.103Z,95
2023-01-30T01:45:15.450Z,95
2023-01-30T01:50:15.106Z,96
2023-01-30T01:55:15.170Z,95
2023-01-30T02:00:15.095Z,95
2023-01-30T02:05:15.472Z,95
2023-01-30T02:10:15.098Z,95
2023-01-30T02:15:15.285Z,96
2023-01-30T02:20:15.118Z,96
2023-01-30T02:25:15.376Z,96
2023-01-30T02:30:15.111Z,96
2023-01-30T02:35:15.134Z,96
2023-01-30T02:40:15.106Z,96
2023-01-30T02:45:15.107Z,96
2023-01-30T02:50:15.098Z,96
2023-01-30T02:55:15.335Z,97
2023-01-30T03:00:15.091Z,96
2023-01-30T03:05:15.186Z,96
2023-01-30T03:10:15.100Z,96
2023-01-30T03:15:15.312Z,96
2023-01-30T03:20:15.096Z,96
2023-01-30T03:25:15.350Z,96
2023-01-30T03:30:15.092Z,96
2023-01-30T03:35:15.250Z,95
2023-01-30T03:40:15.101Z,95
2023-01-30T03:45:15.329Z,95
2023-01-30T03:50:15.095Z,95
2023-01-30T03:55:15.097Z,95
2023-01-30T04:00:15.101Z,95
2023-01-30T04:05:15.350Z,95
2023-01-30T04:10:15.098Z,95
2023-01-30T04:15:15.097Z,95
2023-01-30T04:20:15.118Z,95
2023-01-30T04:25:15.129Z,95
2023-01-30T04:30:15.105Z,95
2023-01-30T04:35:15.097Z,94
2023-01-30T04:40:15.101Z,95
2023-01-30T04:45:15.135Z,94
2023-01-30T04:50:15.098Z,94
2023-01-30T04:55:15.085Z,94
2023-01-30T05:00:15.099Z,94
2023-01-30T05:05:15.178Z,94
2023-01-30T05:10:15.110Z,93
2023-01-30T05:15:15.095Z,93
2023-01-30T05:20:15.106Z,93
2023-01-30T05:25:15.097Z,93
2023-01-30T05:30:15.107Z,93
2023-01-30T05:35:15.123Z,93
2023-01-30T05:40:15.093Z,93
2023-01-30T05:45:15.093Z,93
2023-01-30T05:50:15.100Z,93
2023-01-30T05:55:15.264Z,92
2023-01-30T06:00:15.095Z,93
2023-01-30T06:05:15.102Z,93
2023-01-30T06:10:15.091Z,93
2023-01-30T06:15:15.337Z,93
2023-01-30T06:20:15.105Z,93
2023-01-30T06:25:15.139Z,93
2023-01-30T06:30:15.090Z,93
2023-01-30T06:35:15.211Z,93
2023-01-30T06:40:15.096Z,94
2023-01-30T06:45:15.097Z,94
2023-01-30T06:50:15.094Z,95
2023-01-30T06:55:15.148Z,95
2023-01-30T07:00:15.097Z,96
2023-01-30T07:05:15.092Z,96
2023-01-30T07:10:15.095Z,96
2023-01-30T07:15:15.120Z,96
2023-01-30T07:20:15.115Z,96
2023-01-30T07:25:15.159Z,96
2023-01-30T07:30:15.101Z,96
2023-01-30T07:35:15.108Z,96
2023-01-30T07:40:15.120Z,95
2023-01-30T07:45:15.140Z,96
2023-01-30T07:50:15.086Z,96
2023-01-30T07:55:15.101Z,97
2023-01-30T08:00:15.104Z,97
2023-01-30T08:05:15.100Z,97
2023-01-30T08:10:15.124Z,98
2023-01-30T08:15:15.095Z,98
2023-01-30T08:20:15.098Z,97
2023-01-30T08:25:15.090Z,97
2023-01-30T08:30:15.116Z,97
2023-01-30T08:35:15.108Z,97
2023-01-30T08:40:15.098Z,98
2023-01-30T08:45:15.095Z,97
2023-01-30T08:50:15.106Z,98
2023-01-30T08:55:15.100Z,97
2023-01-30T09:00:15.110Z,98
2023-01-30T09:05:15.087Z,98
2023-01-30T09:10:15.098Z,98
2023-01-30T09:15:15.106Z,98
2023-01-30T09:20:15.131Z,98
2023-01-30T09:25:15.114Z,97
2023-01-30T09:30:15.091Z,97
2023-01-30T09:35:15.102Z,97
2023-01-30T09:40:15.105Z,96
2023-01-30T09:45:15.098Z,95
2023-01-30T09:50:15.098Z,95
2023-01-30T09:55:15.088Z,94
2023-01-30T10:00:15.198Z,94
2023-01-30T10:05:15.233Z,94
2023-01-30T10:10:15.198Z,94
2023-01-30T10:15:15.085Z,94
2023-01-30T10:20:15.092Z,94
2023-01-30T10:25:15.123Z,93
2023-01-30T10:30:15.089Z,93
2023-01-30T10:35:15.096Z,93
2023-01-30T10:40:15.161Z,93
2023-01-30T10:45:15.095Z,93
2023-01-30T10:50:15.111Z,93
2023-01-30T10:55:18.106Z,93
2023-01-30T11:00:15.177Z,93
2023-01-30T11:05:15.106Z,93
2023-01-30T11:10:15.093Z,92
2023-01-30T11:15:15.109Z,92
2023-01-30T11:20:15.091Z,91
2023-01-30T11:25:15.212Z,91
2023-01-30T11:30:15.112Z,91
2023-01-30T11:35:15.108Z,90
2023-01-30T11:40:15.254Z,90
2023-01-30T11:45:17.980Z,91
2023-01-30T11:50:17.038Z,92
2023-01-30T11:55:15.095Z,92
2023-01-30T12:00:15.132Z,92
2023-01-30T12:05:15.097Z,91
2023-01-30T12:10:15.252Z,90
2023-01-30T12:15:15.103Z,90
2023-01-30T12:20:15.208Z,89
2023-01-30T12:25:15.103Z,87
2023-01-30T12:30:15.156Z,87
2023-01-30T12:35:15.197Z,86
2023-01-30T12:40:15.097Z,85
2023-01-30T12:45:15.098Z,85
2023-01-30T12:50:15.414Z,85
2023-01-30T13:00:15.094Z,85
2023-01-30T13:05:15.100Z,86
2023-01-30T13:10:16.431Z,87
2023-01-30T13:15:15.090Z,87
2023-01-30T13:20:15.095Z,87
2023-01-30T13:25:15.112Z,86
2023-01-30T13:30:15.135Z,86
2023-01-30T13:35:15.109Z,86
2023-01-30T13:40:15.101Z,86
2023-01-30T13:45:15.103Z,88
2023-01-30T13:50:15.101Z,89
2023-01-30T13:55:15.201Z,91
2023-01-30T14:00:15.209Z,92
2023-01-30T14:05:15.145Z,92
2023-01-30T14:10:15.092Z,93
2023-01-30T14:15:15.142Z,92
2023-01-30T14:20:15.088Z,92
2023-01-30T14:25:15.098Z,92
2023-01-30T14:30:15.163Z,91
2023-01-30T14:35:15.086Z,91
2023-01-30T14:40:15.209Z,90
2023-01-30T14:45:15.119Z,89
2023-01-30T14:50:15.267Z,89
2023-01-30T14:55:15.103Z,88
2023-01-30T15:00:17.802Z,88
2023-01-30T15:05:15.159Z,88
2023-01-30T15:10:15.100Z,89
2023-01-30T15:15:15.107Z,88
2023-01-30T15:20:15.098Z,88
2023-01-30T15:25:15.098Z,88
2023-01-30T15:30:15.095Z,88
2023-01-30T15:35:15.111Z,88
2023-01-30T15:40:15.106Z,88
2023-01-30T15:45:15.213Z,88
2023-01-30T15:50:15.121Z,87
2023-01-30T15:55:15.120Z,86
2023-01-30T16:00:15.088Z,86
2023-01-30T16:05:15.099Z,86
2023-01-30T16:10:15.101Z,85
2023-01-30T16:15:19.508Z,86
2023-01-30T16:20:15.364Z,86
2023-01-30T16:25:15.095Z,86
2023-01-30T16:30:15.101Z,86
2023-01-30T16:35:15.109Z,86
2023-01-30T16:40:15.116Z,87
2023-01-30T16:45:15.100Z,86
2023-01-30T16:50:15.097Z,86
2023-01-30T16:55:15.106Z,86
2023-01-30T17:00:15.091Z,87
2023-01-30T17:05:15.106Z,87
2023-01-30T17:10:15.102Z,87
2023-01-30T17:15:15.099Z,87
2023-01-30T17:20:15.105Z,87
2023-01-30T17:25:15.095Z,86
2023-01-30T17:30:15.109Z,87
2023-01-30T17:35:15.104Z,86
2023-01-30T17:40:15.084Z,86
2023-01-30T17:45:15.099Z,86
2023-01-30T17:50:15.105Z,86
2023-01-30T17:55:15.117Z,85
2023-01-30T18:00:15.104Z,85
2023-01-30T18:05:15.108Z,85
2023-01-30T18:10:15.102Z,84
2023-01-30T18:15:15.110Z,84
2023-01-30T18:20:15.115Z,84
2023-01-30T18:25:15.105Z,83
2023-01-30T18:30:17.125Z,83
2023-01-30T18:35:15.101Z,83
2023-01-30T18:40:15.177Z,83
2023-01-30T18:45:15.109Z,84
2023-01-30T18:50:15.116Z,85
2023-01-30T18:55:15.113Z,84
2023-01-30T19:00:17.235Z,84
2023-01-30T19:05:15.109Z,84
2023-01-30T19:10:15.092Z,86
2023-01-30T19:15:15.101Z,86
2023-01-30T19:20:15.135Z,86
2023-01-30T19:25:15.129Z,86
2023-01-30T19:30:15.118Z,86
2023-01-30T19:35:15.102Z,86
2023-01-30T19:40:15.105Z,86
2023-01-30T19:45:15.096Z,86
2023-01-30T19:50:15.100Z,86
2023-01-30T19:55:15.099Z,86
2023-01-30T20:00:15.093Z,87
2023-01-30T20:05:15.112Z,87
2023-01-30T20:10:15.095Z,86
2023-01-30T20:15:15.109Z,86
2023-01-30T20:20:15.101Z,86
2023-01-30T20:25:15.111Z,85
2023-01-30T20:30:15.445Z,85
2023-01-30T20:35:15.100Z,85
2023-01-30T20:40:15.092Z,85
2023-01-30T20:45:15.107Z,85
2023-01-30T20:50:15.111Z,85
2023-01-30T20:55:15.099Z,85
2023-01-30T21:00:15.100Z,84
2023-01-30T21:05:15.102Z,84
2023-01-30T21:10:15.100Z,84
2023-01-30T21:15:15.102Z,84
2023-01-30T21:20:15.095Z,84
2023-01-30T21:25:15.139Z,84
2023-01-30T21:30:15.103Z,84
2023-01-30T21:35:15.097Z,84
2023-01-30T21:40:15.091Z,84
2023-01-30T21:45:15.096Z,84
2023-01-30T21:50:15.099Z,84
2023-01-30T21:55:15.105Z,84
2023-01-30T22:00:15.097Z,83
2023-01-30T22:05:15.099Z,83
2023-01-30T22:10:15.104Z,83
2023-01-30T22:15:15.114Z,84
2023-01-30T22:20:15.102Z,84
2023-01-30T22:25:15.108Z,83
2023-01-30T22:30:15.096Z,84
2023-01-30T22:35:15.088Z,85
2023-01-30T22:40:15.105Z,85
2023-01-30T22:45:15.089Z,85
2023-01-30T22:50:15.094Z,85
2023-01-30T22:55:15.100Z,85
2023-01-30T23:00:15.092Z,85
2023-01-30T23:05:15.095Z,85
2023-01-30T23:10:15.092Z,85
2023-01-30T23:15:15.113Z,86
2023-01-30T23:20:15.095Z,86
2023-01-30T23:25:15.112Z,87
2023-01-30T23:30:15.096Z,87
2023-01-30T23:35:15.116Z,87
2023-01-30T23:40:15.097Z,87
2023-01-30T23:45:15.097Z,87
2023-01-30T23:50:15.098Z,87
2023-01-30T23:55:15.107Z,87
